createdAt,value
2023-04-28T13:00:52.348Z,12868.00
2023-04-28T13:01:53.549Z,14332.00
2023-04-28T13:02:52.373Z,13568.00
2023-04-28T13:03:52.947Z,13292.00
2023-04-28T13:04:56.858Z,13152.00
2023-04-28T13:05:52.320Z,13524.00
2023-04-28T13:06:52.137Z,12000.00
2023-04-28T13:12:44.450Z,7912.00
2023-04-28T13:13:43.457Z,7252.00
2023-04-28T13:14:44.685Z,7832.00
2023-04-28T13:15:43.027Z,8236.00
2023-04-28T13:16:42.982Z,9260.00
2023-04-28T13:17:43.527Z,9896.00
2023-04-28T13:18:43.957Z,11732.00
2023-04-28T13:19:42.945Z,11784.00
2023-04-28T13:20:42.831Z,11468.00
2023-04-28T13:21:43.504Z,11808.00
2023-04-28T13:22:42.768Z,12332.00
2023-04-28T13:23:42.791Z,13360.00
2023-04-28T13:24:42.584Z,11204.00
2023-04-28T13:25:42.513Z,10924.00
2023-04-28T13:26:42.588Z,9860.00
2023-04-28T13:27:43.439Z,10296.00
2023-04-28T13:28:42.388Z,11392.00
2023-04-28T13:29:42.374Z,9724.00
2023-04-28T13:30:42.331Z,8740.00
2023-04-28T13:31:42.348Z,9388.00
2023-04-28T13:32:42.305Z,9056.00
2023-04-28T13:33:42.248Z,9760.00
2023-04-28T13:34:42.357Z,10884.00
2023-04-28T13:35:42.290Z,9948.00
2023-04-28T13:36:42.133Z,11876.00
2023-04-28T13:37:42.111Z,11880.00
2023-04-28T13:38:42.076Z,8432.00
2023-04-28T13:39:42.039Z,7968.00
2023-04-28T13:40:42.185Z,7712.00
2023-04-28T13:41:41.973Z,6924.00
2023-04-28T13:42:42.124Z,5868.00
2023-04-28T13:43:41.916Z,5828.00
2023-04-28T13:44:41.849Z,5740.00
2023-04-28T13:45:41.848Z,6252.00
2023-04-28T13:46:41.856Z,7996.00
2023-04-28T13:47:41.774Z,8136.00
2023-04-28T13:48:41.760Z,6760.00
2023-04-28T13:49:41.692Z,5716.00
2023-04-28T13:50:41.650Z,6916.00
2023-04-28T13:51:41.625Z,9516.00
2023-04-28T13:52:41.582Z,8552.00
2023-04-28T13:53:41.541Z,8324.00
2023-04-28T13:54:41.511Z,7748.00
2023-04-28T13:55:41.493Z,7056.00
2023-04-28T13:56:41.451Z,6516.00
2023-04-28T13:57:41.412Z,6288.00
2023-04-28T13:58:41.375Z,7800.00
2023-04-28T13:59:41.333Z,7400.00
2023-04-28T14:00:41.330Z,6808.00
2023-04-28T14:01:41.324Z,6228.00
2023-04-28T14:02:43.184Z,5988.00
2023-04-28T14:03:41.333Z,5452.00
2023-04-28T14:04:41.449Z,5088.00
2023-04-28T14:05:48.847Z,5000.00
2023-04-28T14:06:41.090Z,6336.00
2023-04-28T14:07:41.095Z,11628.00
2023-04-28T14:08:41.129Z,12536.00
2023-04-28T14:09:41.003Z,12012.00
2023-04-28T14:10:40.982Z,12352.00
2023-04-28T14:11:40.989Z,12284.00
2023-04-28T14:12:40.909Z,10728.00
2023-04-28T14:13:40.926Z,10464.00
2023-04-28T14:14:47.211Z,9820.00
2023-04-28T14:15:51.266Z,10060.00
2023-04-28T14:16:40.785Z,11584.00
2023-04-28T14:17:40.740Z,10164.00
2023-04-28T14:18:40.693Z,8596.00
2023-04-28T14:19:42.677Z,8344.00
2023-04-28T14:20:40.642Z,8644.00
2023-04-28T14:21:43.585Z,9060.00
2023-04-28T14:22:40.593Z,9552.00
2023-04-28T14:23:40.523Z,8168.00
2023-04-28T14:24:40.554Z,7548.00
2023-04-28T14:25:42.162Z,6840.00
2023-04-28T14:26:40.454Z,5552.00
2023-04-28T14:27:40.431Z,5852.00
2023-04-28T14:28:40.381Z,6704.00
2023-04-28T14:29:40.402Z,7724.00
2023-04-28T14:30:40.291Z,9476.00
2023-04-28T14:31:42.224Z,11636.00
2023-04-28T14:32:40.287Z,11644.00
2023-04-28T14:33:44.087Z,10704.00
2023-04-28T14:34:40.152Z,9344.00
2023-04-28T14:35:40.115Z,7720.00
2023-04-28T14:36:40.085Z,7140.00
2023-04-28T14:37:40.112Z,6692.00
2023-04-28T14:38:40.418Z,7788.00
2023-04-28T14:39:39.997Z,8276.00
2023-04-28T14:40:41.633Z,8404.00
2023-04-28T14:41:39.909Z,6920.00
2023-04-28T14:42:39.891Z,6164.00
2023-04-28T14:43:39.868Z,7516.00
2023-04-28T14:44:39.802Z,9440.00
2023-04-28T14:45:39.814Z,9372.00
2023-04-28T14:46:39.879Z,9208.00
2023-04-28T14:47:39.722Z,9744.00
2023-04-28T14:48:39.664Z,9704.00
2023-04-28T14:49:39.648Z,9616.00
2023-04-28T14:50:39.600Z,10412.00
2023-04-28T14:51:39.613Z,9472.00
2023-04-28T14:52:39.538Z,8172.00
2023-04-28T14:53:39.519Z,7592.00
2023-04-28T14:54:39.458Z,8168.00
2023-04-28T14:55:39.446Z,8440.00
2023-04-28T14:56:39.414Z,7936.00
2023-04-28T14:57:39.400Z,8416.00
2023-04-28T14:58:39.340Z,8740.00
2023-04-28T14:59:39.309Z,8568.00
2023-04-28T15:00:39.268Z,8544.00
2023-04-28T15:01:39.264Z,8216.00
2023-04-28T15:02:39.381Z,7752.00
2023-04-28T15:03:39.305Z,7748.00
2023-04-28T15:04:39.211Z,7668.00
2023-04-28T15:05:39.102Z,7056.00
2023-04-28T15:06:39.053Z,7044.00
2023-04-28T15:07:39.034Z,7716.00
2023-04-28T15:08:39.030Z,7272.00
2023-04-28T15:09:40.610Z,6996.00
2023-04-28T15:10:38.907Z,6304.00
2023-04-28T15:11:38.900Z,4728.00
2023-04-28T15:12:38.858Z,3996.00
2023-04-28T15:13:40.007Z,3876.00
2023-04-28T15:14:38.803Z,3472.00
2023-04-28T15:15:38.737Z,3764.00
2023-04-28T15:16:38.907Z,4828.00
2023-04-28T15:17:38.721Z,4940.00
2023-04-28T15:18:38.638Z,4312.00
2023-04-28T15:19:38.619Z,4144.00
2023-04-28T15:20:38.597Z,4900.00
2023-04-28T15:21:38.542Z,7116.00
2023-04-28T15:22:38.533Z,8100.00
2023-04-28T15:23:38.506Z,8436.00
2023-04-28T15:24:38.424Z,8436.00
2023-04-28T15:25:38.393Z,8284.00
2023-04-28T15:26:38.379Z,7908.00
2023-04-28T15:27:38.338Z,8308.00
2023-04-28T15:28:38.305Z,7288.00
2023-04-28T15:29:38.276Z,5660.00
2023-04-28T15:30:38.231Z,4464.00
2023-04-28T15:31:38.219Z,4748.00
2023-04-28T15:32:38.262Z,4348.00
2023-04-28T15:33:38.118Z,6152.00
2023-04-28T15:34:38.078Z,6772.00
2023-04-28T15:35:38.057Z,7096.00
2023-04-28T15:36:38.007Z,7696.00
2023-04-28T15:37:38.011Z,7712.00
2023-04-28T15:38:39.634Z,8088.00
2023-04-28T15:39:37.965Z,7904.00
2023-04-28T15:40:37.871Z,7608.00
2023-04-28T15:41:37.882Z,7548.00
2023-04-28T15:42:37.808Z,7724.00
2023-04-28T15:43:37.821Z,7920.00
2023-04-28T15:44:40.613Z,7744.00
2023-04-28T15:45:37.759Z,6976.00
2023-04-28T15:46:37.733Z,6824.00
2023-04-28T15:47:37.633Z,7088.00
2023-04-28T15:48:37.607Z,6876.00
2023-04-28T15:49:37.627Z,6992.00
2023-04-28T15:50:40.886Z,6980.00
2023-04-28T15:51:39.232Z,6904.00
2023-04-28T15:52:37.439Z,6652.00
2023-04-28T15:53:37.416Z,7228.00
2023-04-28T15:54:37.377Z,7116.00
2023-04-28T15:55:37.356Z,6800.00
2023-04-28T15:56:37.322Z,6412.00
2023-04-28T15:57:37.284Z,6344.00
2023-04-28T15:58:37.223Z,6620.00
2023-04-28T15:59:37.206Z,6952.00
2023-04-28T16:00:37.165Z,7056.00
2023-04-28T16:01:37.182Z,6792.00
2023-04-28T16:02:37.192Z,6296.00
2023-04-28T16:03:37.432Z,6088.00
2023-04-28T16:04:37.186Z,6108.00
2023-04-28T16:05:36.995Z,6248.00
2023-04-28T16:06:36.977Z,6540.00
2023-04-28T16:07:36.921Z,6532.00
2023-04-28T16:08:36.928Z,6316.00
2023-04-28T16:09:36.839Z,6128.00
2023-04-28T16:10:36.842Z,5976.00
2023-04-28T16:11:38.661Z,5700.00
2023-04-28T16:12:36.744Z,5248.00
2023-04-28T16:13:36.708Z,5132.00
2023-04-28T16:14:36.697Z,5392.00
2023-04-28T16:15:36.648Z,5164.00
2023-04-28T16:16:36.618Z,4964.00
2023-04-28T16:17:38.295Z,4776.00
2023-04-28T16:18:38.301Z,4856.00
2023-04-28T16:19:36.486Z,5024.00
2023-04-28T16:20:37.540Z,5080.00
2023-04-28T16:21:36.419Z,4936.00
2023-04-28T16:22:36.365Z,4772.00
2023-04-28T16:23:36.382Z,4720.00
2023-04-28T16:24:38.245Z,4896.00
2023-04-28T16:25:36.273Z,4840.00
2023-04-28T16:26:42.283Z,4660.00
2023-04-28T16:27:39.638Z,4296.00
2023-04-28T16:28:38.152Z,4180.00
2023-04-28T16:31:57.716Z,3908.00
2023-04-28T16:33:25.211Z,4220.00
2023-04-28T16:33:32.711Z,4360.00
2023-04-28T16:38:06.856Z,2928.00
2023-04-28T16:39:04.567Z,3024.00
2023-04-28T16:40:04.373Z,2804.00
2023-04-28T16:41:05.240Z,2748.00
2023-04-28T16:42:05.823Z,2776.00
2023-04-28T16:43:04.281Z,2712.00
2023-04-28T16:44:04.736Z,2684.00
2023-04-28T16:45:04.134Z,2616.00
2023-04-28T16:46:04.125Z,2320.00
2023-04-28T16:47:05.828Z,2308.00
2023-04-28T16:48:04.116Z,2360.00
2023-04-28T16:49:05.854Z,2572.00
2023-04-28T16:50:03.960Z,2792.00
2023-04-28T16:51:03.958Z,2792.00
2023-04-28T16:52:08.778Z,3008.00
2023-04-28T16:53:03.922Z,2904.00
2023-04-28T16:54:03.985Z,2732.00
2023-04-28T16:58:07.503Z,3120.00
2023-04-28T16:59:06.263Z,3340.00
2023-04-28T17:00:07.016Z,2996.00
2023-04-28T17:01:06.259Z,2960.00
2023-04-28T17:02:06.944Z,2844.00
2023-04-28T17:03:06.271Z,2736.00
2023-04-28T17:04:06.734Z,2976.00
2023-04-28T17:05:06.021Z,3204.00
2023-04-28T17:06:06.073Z,3272.00
2023-04-28T17:07:06.472Z,3316.00
2023-04-28T17:08:07.517Z,3132.00
2023-04-28T17:09:05.888Z,3120.00
2023-04-28T17:10:05.865Z,3136.00
2023-04-28T17:11:05.844Z,3120.00
2023-04-28T17:12:06.526Z,2928.00
2023-04-28T17:13:07.291Z,2684.00
2023-04-28T17:14:06.693Z,2524.00
2023-04-28T17:15:06.521Z,2392.00
2023-04-28T17:16:05.676Z,2336.00
2023-04-28T17:17:05.999Z,2216.00
2023-04-28T17:18:05.555Z,2140.00
2023-04-28T17:19:05.610Z,1984.00
2023-04-28T17:20:06.060Z,1764.00
2023-04-28T17:21:05.419Z,1652.00
2023-04-28T17:22:05.937Z,1800.00
2023-04-28T17:23:05.375Z,1788.00
2023-04-28T17:24:05.383Z,1800.00
2023-04-28T17:25:05.281Z,1724.00
2023-04-28T17:26:05.286Z,1724.00
2023-04-28T17:27:05.260Z,1588.00
2023-04-28T17:28:05.271Z,1628.00
2023-04-28T17:29:05.245Z,1576.00
2023-04-28T17:30:06.051Z,1568.00
2023-04-28T17:31:06.122Z,1704.00
2023-04-28T17:32:06.031Z,1796.00
2023-04-28T17:33:05.061Z,1784.00
2023-04-28T17:34:07.478Z,1696.00
2023-04-28T17:35:04.906Z,1700.00
2023-04-28T17:36:05.009Z,1632.00
2023-04-28T17:37:05.522Z,1644.00
2023-04-28T17:38:04.885Z,1740.00
2023-04-28T17:39:04.788Z,1676.00
2023-04-28T17:40:05.780Z,1668.00
2023-04-28T17:41:12.403Z,1644.00
2023-04-28T17:42:04.955Z,1560.00
2023-04-28T17:43:05.013Z,1412.00
2023-04-28T17:44:04.573Z,1340.00
2023-04-28T17:45:05.537Z,1300.00
2023-04-28T17:46:04.605Z,1184.00
2023-04-28T17:47:04.641Z,1076.00
2023-04-28T17:48:04.542Z,1040.00
2023-04-28T17:49:04.426Z,1012.00
2023-04-28T17:50:04.402Z,956.00
2023-04-28T17:51:05.063Z,884.00
2023-04-28T17:52:04.391Z,920.00
2023-04-28T17:53:06.274Z,1000.00
2023-04-28T17:54:08.391Z,968.00
2023-04-28T17:55:07.037Z,972.00
2023-04-28T17:56:04.141Z,1024.00
2023-04-28T17:57:04.113Z,1040.00
2023-04-28T17:58:04.097Z,968.00
2023-04-28T17:59:05.058Z,840.00
2023-04-28T18:00:08.527Z,852.00
2023-04-28T18:01:03.957Z,772.00
2023-04-28T18:02:04.624Z,708.00
2023-04-28T18:03:05.707Z,640.00
2023-04-28T18:04:03.847Z,576.00
2023-04-28T18:05:09.250Z,576.00
2023-04-28T18:06:06.586Z,556.00
2023-04-28T18:07:03.836Z,560.00
2023-04-28T18:08:03.872Z,516.00
2023-04-28T18:09:03.743Z,524.00
